Dallas, Iowa
Current Conditions -  °F | °C
As of 9:15 AM on Friday 31 Oct 2014 (Local Time) from KOXV Reporting Station
Clear Clear  
Wind Chill: -7°   Ceiling: Unl
Heat Index: -1°   Visibility: 10mi
Dew Point: -8°   Wind: 15mph
Humidity: 60%   Direction: 350°N
Pressure: 30.44"   Gusts: 28mph
Location:  41.23°N, 93.24°W
Report Text: KOXV 311415Z AUTO 35013G24KT 10SM CLR M01/M08 A3044 RMK AO2
Loading
Personal Weather Stations






























Interactive Weather Map
Tropical Storm Tracking
New forecast layout! Learn more

10-Day Weather Forecast

Advertisements
Track Severe Weather on mobile